createdAt,value
2016-06-29T00:00:20.763Z,67.36
2016-06-29T00:01:20.775Z,67.46
2016-06-29T00:02:20.773Z,67.36
2016-06-29T00:03:20.831Z,67.56
2016-06-29T00:04:20.798Z,67.27
2016-06-29T00:05:20.783Z,67.56
2016-06-29T00:06:20.786Z,67.56
2016-06-29T00:07:20.771Z,67.66
2016-06-29T00:08:20.782Z,67.56
2016-06-29T00:09:20.785Z,67.56
2016-06-29T00:10:20.798Z,67.36
2016-06-29T00:11:20.785Z,67.08
2016-06-29T00:12:20.771Z,67.46
2016-06-29T00:13:20.779Z,67.36
2016-06-29T00:14:20.778Z,67.36
2016-06-29T00:15:20.802Z,67.17
2016-06-29T00:16:20.992Z,67.27
2016-06-29T00:17:21.008Z,67.27
2016-06-29T00:18:20.786Z,67.36
2016-06-29T00:19:20.993Z,67.27
2016-06-29T00:20:20.795Z,67.36
2016-06-29T00:21:20.794Z,67.36
2016-06-29T00:22:20.795Z,67.27
2016-06-29T00:23:20.796Z,67.36
2016-06-29T00:24:20.801Z,67.36
2016-06-29T00:25:21.006Z,67.27
2016-06-29T00:26:20.786Z,67.36
2016-06-29T00:27:20.801Z,67.56
2016-06-29T00:28:20.799Z,67.56
2016-06-29T00:29:20.791Z,67.46
2016-06-29T00:30:20.792Z,67.36
2016-06-29T00:31:20.848Z,67.27
2016-06-29T00:32:20.809Z,67.66
2016-06-29T00:33:21.016Z,67.75
2016-06-29T00:34:20.830Z,67.36
2016-06-29T00:35:20.809Z,67.56
2016-06-29T00:36:20.811Z,67.36
2016-06-29T00:37:20.814Z,67.36
2016-06-29T00:38:20.805Z,67.72
2016-06-29T00:39:20.811Z,67.52
2016-06-29T00:40:20.818Z,67.27
2016-06-29T00:41:20.848Z,67.24
2016-06-29T00:42:20.836Z,67.24
2016-06-29T00:43:20.813Z,67.36
2016-06-29T00:44:20.816Z,67.43
2016-06-29T00:45:20.822Z,67.75
2016-06-29T00:46:20.827Z,67.24
2016-06-29T00:47:20.811Z,67.56
2016-06-29T00:48:20.845Z,67.46
2016-06-29T00:49:20.832Z,67.46
2016-06-29T00:50:20.820Z,67.33
2016-06-29T00:51:20.825Z,67.36
2016-06-29T00:52:20.821Z,67.72
2016-06-29T00:53:20.829Z,67.36
2016-06-29T00:54:21.032Z,67.62
2016-06-29T00:55:20.837Z,67.43
2016-06-29T00:56:20.843Z,67.72
2016-06-29T00:57:20.842Z,67.33
2016-06-29T00:58:20.882Z,67.72
2016-06-29T00:59:20.836Z,67.52
2016-06-29T01:00:20.842Z,67.52
2016-06-29T01:01:20.840Z,67.62
2016-06-29T01:02:20.841Z,67.62
2016-06-29T01:03:20.839Z,67.56
2016-06-29T01:04:20.847Z,67.52
2016-06-29T01:05:20.859Z,67.52
2016-06-29T01:06:20.842Z,67.33
2016-06-29T01:07:20.851Z,67.62
2016-06-29T01:08:20.859Z,67.52
2016-06-29T01:09:21.051Z,67.82
2016-06-29T01:10:21.051Z,67.52
2016-06-29T01:11:20.849Z,67.82
2016-06-29T01:12:20.859Z,67.62
2016-06-29T01:13:20.855Z,67.62
2016-06-29T01:14:20.875Z,67.52
2016-06-29T01:15:21.055Z,67.72
2016-06-29T01:16:20.853Z,67.82
2016-06-29T01:17:20.852Z,67.72
2016-06-29T01:18:20.867Z,67.72
2016-06-29T01:19:20.858Z,67.52
2016-06-29T01:20:21.068Z,67.62
2016-06-29T01:21:20.875Z,67.43
2016-06-29T01:22:20.890Z,67.43
2016-06-29T01:23:20.875Z,67.82
2016-06-29T01:24:20.864Z,67.91
2016-06-29T01:25:20.882Z,67.72
2016-06-29T01:26:20.876Z,67.82
2016-06-29T01:27:20.875Z,68.3
2016-06-29T01:28:20.875Z,67.62
2016-06-29T01:29:20.877Z,67.82
2016-06-29T01:30:21.083Z,67.82
2016-06-29T01:31:20.870Z,67.52
2016-06-29T01:32:20.878Z,67.82
2016-06-29T01:33:20.875Z,67.72
2016-06-29T01:34:20.871Z,67.82
2016-06-29T01:35:20.873Z,67.72
2016-06-29T01:36:20.879Z,67.72
2016-06-29T01:37:20.886Z,67.72
2016-06-29T01:38:20.879Z,67.82
2016-06-29T01:39:20.890Z,67.72
2016-06-29T01:40:20.882Z,67.82
2016-06-29T01:41:20.883Z,67.91
2016-06-29T01:42:20.888Z,67.91
2016-06-29T01:43:20.887Z,67.82
2016-06-29T01:44:20.886Z,67.91
2016-06-29T01:45:20.893Z,67.91
2016-06-29T01:46:20.889Z,67.91
2016-06-29T01:47:20.887Z,68.2
2016-06-29T01:48:20.886Z,68.2
2016-06-29T01:49:20.900Z,68.2
2016-06-29T01:50:20.902Z,68.3
2016-06-29T01:51:20.891Z,67.91
2016-06-29T01:52:20.908Z,68.01
2016-06-29T01:53:20.925Z,68.3
2016-06-29T01:54:20.900Z,68.2
2016-06-29T01:55:21.098Z,68.1
2016-06-29T01:56:21.098Z,68.2
2016-06-29T01:57:20.899Z,68.2
2016-06-29T01:58:20.899Z,68.1
2016-06-29T01:59:20.901Z,68.2
2016-06-29T02:00:20.917Z,68.1
2016-06-29T02:01:20.909Z,68.1
2016-06-29T02:02:20.896Z,67.82
2016-06-29T02:03:20.895Z,68.1
2016-06-29T02:04:20.906Z,67.91
2016-06-29T02:05:20.912Z,67.72
2016-06-29T02:06:20.908Z,67.72
2016-06-29T02:07:20.907Z,68.01
2016-06-29T02:08:20.908Z,68.3
2016-06-29T02:09:20.916Z,68.3
2016-06-29T02:10:20.911Z,68.59
2016-06-29T02:11:20.908Z,67.91
2016-06-29T02:12:20.911Z,68.55
2016-06-29T02:13:21.121Z,68.3
2016-06-29T02:14:20.908Z,68.3
2016-06-29T02:15:20.918Z,68.49
2016-06-29T02:16:21.121Z,68.3
2016-06-29T02:17:20.927Z,68.36
2016-06-29T02:18:20.923Z,68.4
2016-06-29T02:19:20.916Z,68.4
2016-06-29T02:20:20.923Z,68.4
2016-06-29T02:21:20.950Z,68.4
2016-06-29T02:22:20.917Z,68.4
2016-06-29T02:23:20.934Z,68.49
2016-06-29T02:24:20.924Z,68.4
2016-06-29T02:25:20.924Z,68.59
2016-06-29T02:26:20.941Z,68.4
2016-06-29T02:27:20.932Z,68.49
2016-06-29T02:28:20.936Z,68.17
2016-06-29T02:29:20.929Z,68.49
2016-06-29T02:30:20.939Z,68.2
2016-06-29T02:31:20.938Z,68.49
2016-06-29T02:32:20.938Z,68.4
2016-06-29T02:33:20.936Z,68.49
2016-06-29T02:34:20.969Z,68.49
2016-06-29T02:35:20.934Z,68.46
2016-06-29T02:36:20.940Z,68.2
2016-06-29T02:37:20.936Z,68.3
2016-06-29T02:38:20.949Z,68.4
2016-06-29T02:39:20.941Z,68.49
2016-06-29T02:40:20.947Z,68.55
2016-06-29T02:41:20.942Z,68.49
2016-06-29T02:42:20.938Z,68.46
2016-06-29T02:43:20.951Z,68.49
2016-06-29T02:44:21.145Z,68.2
2016-06-29T02:45:20.942Z,68.46
2016-06-29T02:46:20.973Z,68.26
2016-06-29T02:47:20.957Z,68.26
2016-06-29T02:48:20.951Z,68.26
2016-06-29T02:49:20.943Z,69.07
2016-06-29T02:50:20.971Z,68.17
2016-06-29T02:51:20.954Z,68.17
2016-06-29T02:52:20.950Z,68.2
2016-06-29T02:53:20.949Z,68.17
2016-06-29T02:54:20.955Z,68.26
2016-06-29T02:55:20.955Z,68.55
2016-06-29T02:56:20.952Z,68.17
2016-06-29T02:57:20.954Z,68.55
2016-06-29T02:58:20.960Z,68.17
2016-06-29T02:59:20.959Z,68.36
2016-06-29T03:00:20.961Z,68.17
2016-06-29T03:01:21.169Z,68.17
2016-06-29T03:02:20.964Z,68.07
2016-06-29T03:03:20.970Z,68.17
2016-06-29T03:04:20.965Z,68.26
2016-06-29T03:05:20.964Z,68.46
2016-06-29T03:06:21.170Z,68.36
2016-06-29T03:07:20.972Z,68.26
2016-06-29T03:08:20.973Z,68.46
2016-06-29T03:09:20.968Z,68.46
2016-06-29T03:10:20.970Z,68.46
2016-06-29T03:11:20.965Z,68.46
2016-06-29T03:12:20.972Z,68.46
2016-06-29T03:13:20.972Z,68.26
2016-06-29T03:14:21.188Z,68.46
2016-06-29T03:15:20.972Z,68.46
2016-06-29T03:16:20.969Z,68.17
2016-06-29T03:17:20.969Z,68.46
2016-06-29T03:18:20.972Z,68.46
2016-06-29T03:19:20.982Z,68.46
2016-06-29T03:20:20.978Z,68.46
2016-06-29T03:21:20.979Z,68.36
2016-06-29T03:22:20.968Z,68.07
2016-06-29T03:23:20.985Z,68.46
2016-06-29T03:24:20.983Z,68.26
2016-06-29T03:25:20.973Z,68.07
2016-06-29T03:26:20.984Z,68.26
2016-06-29T03:27:21.215Z,68.26
2016-06-29T03:28:21.215Z,68.17
2016-06-29T03:29:21.194Z,68.07
2016-06-29T03:30:20.993Z,68.17
2016-06-29T03:31:20.983Z,68.26
2016-06-29T03:32:21.005Z,68.26
2016-06-29T03:33:20.982Z,68.17
2016-06-29T03:34:21.189Z,68.17
2016-06-29T03:35:21.001Z,68.07
2016-06-29T03:36:20.986Z,68.07
2016-06-29T03:37:20.984Z,68.17
2016-06-29T03:38:20.990Z,68.17
2016-06-29T03:39:20.991Z,68.55
2016-06-29T03:40:20.995Z,68.46
2016-06-29T03:41:20.988Z,68.26
2016-06-29T03:42:21.005Z,68.46
2016-06-29T03:43:21.190Z,67.88
2016-06-29T03:44:21.037Z,68.55
2016-06-29T03:45:20.994Z,68.17
2016-06-29T03:46:20.993Z,68.65
2016-06-29T03:47:21.028Z,68.17
2016-06-29T03:48:21.001Z,68.46
2016-06-29T03:49:21.008Z,68.17
2016-06-29T03:50:21.005Z,68.26
2016-06-29T03:51:21.009Z,68.55
2016-06-29T03:52:21.021Z,68.26
2016-06-29T03:53:21.016Z,68.17
2016-06-29T03:54:21.011Z,68.46
2016-06-29T03:55:21.038Z,68.46
2016-06-29T03:56:21.203Z,68.17
2016-06-29T03:57:21.005Z,68.55
2016-06-29T03:58:20.996Z,68.17
2016-06-29T03:59:21.215Z,68.07
2016-06-29T04:00:21.015Z,68.07
2016-06-29T04:01:21.017Z,68.07
2016-06-29T04:02:21.003Z,68.46
2016-06-29T04:03:21.198Z,67.97
2016-06-29T04:04:21.013Z,68.17
2016-06-29T04:05:21.011Z,68.26
2016-06-29T04:06:21.071Z,68.65
2016-06-29T04:07:21.009Z,68.65
2016-06-29T04:08:21.014Z,68.75
2016-06-29T04:09:21.011Z,68.65
2016-06-29T04:10:21.032Z,68.94
2016-06-29T04:11:21.217Z,68.84
2016-06-29T04:12:21.021Z,68.55
2016-06-29T04:13:21.020Z,68.55
2016-06-29T04:14:21.012Z,68.75
2016-06-29T04:15:21.010Z,68.75
2016-06-29T04:16:21.027Z,68.71
2016-06-29T04:17:21.019Z,68.71
2016-06-29T04:18:21.029Z,68.75
2016-06-29T04:19:21.014Z,68.71
2016-06-29T04:20:21.027Z,68.62
2016-06-29T04:21:21.019Z,68.62
2016-06-29T04:22:21.044Z,68.71
2016-06-29T04:23:21.022Z,68.71
2016-06-29T04:24:21.022Z,68.71
2016-06-29T04:25:21.248Z,68.91
2016-06-29T04:26:21.035Z,69.39
2016-06-29T04:27:21.042Z,69.39
2016-06-29T04:28:21.043Z,69.2
2016-06-29T04:29:21.029Z,69.39
2016-06-29T04:30:21.030Z,69.58
2016-06-29T04:31:21.029Z,69.39
2016-06-29T04:32:21.041Z,69.39
2016-06-29T04:33:21.051Z,69.29
2016-06-29T04:34:21.021Z,69.49
2016-06-29T04:35:21.028Z,69.39
2016-06-29T04:36:21.028Z,69.29
2016-06-29T04:37:21.022Z,69.39
2016-06-29T04:38:21.028Z,69.49
2016-06-29T04:39:21.039Z,69.39
2016-06-29T04:40:21.029Z,69.39
2016-06-29T04:41:21.235Z,69.68
2016-06-29T04:42:21.053Z,69.39
2016-06-29T04:43:21.039Z,69.49
2016-06-29T04:44:21.029Z,69.87
2016-06-29T04:45:21.237Z,69.87
2016-06-29T04:46:21.040Z,69.39
2016-06-29T04:47:21.236Z,69.58
2016-06-29T04:48:21.034Z,69.68
2016-06-29T04:49:21.035Z,69.58
2016-06-29T04:50:21.249Z,69.49
2016-06-29T04:51:21.043Z,69.29
2016-06-29T04:52:21.034Z,69.58
2016-06-29T04:53:21.047Z,69.58
2016-06-29T04:54:21.037Z,69.58
2016-06-29T04:55:21.058Z,69.68
2016-06-29T04:56:21.035Z,69.58
2016-06-29T04:57:21.036Z,69.49
2016-06-29T04:58:21.056Z,69.49
2016-06-29T04:59:21.045Z,69.58
2016-06-29T05:00:21.035Z,69.49
2016-06-29T05:01:21.060Z,69.68
2016-06-29T05:02:21.064Z,69.68
2016-06-29T05:03:21.050Z,69.68
2016-06-29T05:04:21.046Z,69.68
2016-06-29T05:05:21.052Z,69.68
2016-06-29T05:06:21.101Z,69.68
2016-06-29T05:07:21.071Z,69.39
2016-06-29T05:08:21.043Z,69.29
2016-06-29T05:09:21.053Z,69.39
2016-06-29T05:10:21.043Z,69.49
2016-06-29T05:11:21.050Z,69.2
2016-06-29T05:12:21.045Z,69.2
2016-06-29T05:13:21.050Z,69.39
2016-06-29T05:14:21.045Z,69.1
2016-06-29T05:15:21.045Z,69.49
2016-06-29T05:16:21.056Z,69.39
2016-06-29T05:17:21.247Z,69.68
2016-06-29T05:18:21.059Z,69.29
2016-06-29T05:19:21.062Z,69.39
2016-06-29T05:20:21.054Z,69.29
2016-06-29T05:21:21.261Z,69.49
2016-06-29T05:22:21.254Z,69.49
2016-06-29T05:23:21.056Z,69.29
2016-06-29T05:24:21.050Z,69.2
2016-06-29T05:25:21.051Z,69.39
2016-06-29T05:26:21.055Z,69.39
2016-06-29T05:27:21.057Z,69.39
2016-06-29T05:28:21.048Z,69.29
2016-06-29T05:29:21.065Z,69.39
2016-06-29T05:30:21.049Z,69.29
2016-06-29T05:31:21.074Z,69.1
2016-06-29T05:32:21.067Z,69.2
2016-06-29T05:33:21.047Z,69.39
2016-06-29T05:34:21.061Z,69.2
2016-06-29T05:35:21.063Z,69
2016-06-29T05:36:21.056Z,69
2016-06-29T05:37:21.051Z,69.39
2016-06-29T05:38:21.063Z,69.39
2016-06-29T05:39:21.074Z,69.45
2016-06-29T05:40:21.061Z,69.49
2016-06-29T05:41:21.053Z,69.64
2016-06-29T05:42:21.056Z,69.68
2016-06-29T05:43:21.060Z,69.45
2016-06-29T05:44:21.059Z,69.64
2016-06-29T05:45:21.063Z,69.49
2016-06-29T05:46:21.054Z,69.45
2016-06-29T05:47:21.071Z,69.45
2016-06-29T05:48:21.067Z,69.16
2016-06-29T05:49:21.088Z,69.35
2016-06-29T05:50:21.070Z,69.64
2016-06-29T05:51:21.058Z,69.64
2016-06-29T05:52:21.054Z,69.35
2016-06-29T05:53:21.066Z,69.45
2016-06-29T05:54:21.067Z,69.26
2016-06-29T05:55:21.064Z,69.35
2016-06-29T05:56:21.059Z,69.26
2016-06-29T05:57:21.064Z,69.26
2016-06-29T05:58:21.059Z,69.45
2016-06-29T05:59:21.260Z,69.16
2016-06-29T06:00:21.068Z,69.68
2016-06-29T06:01:21.069Z,69.45
2016-06-29T06:02:21.068Z,69.84
2016-06-29T06:03:21.067Z,69.55
2016-06-29T06:04:21.062Z,69.64
2016-06-29T06:05:21.100Z,69.45
2016-06-29T06:06:21.063Z,69.55
2016-06-29T06:07:21.072Z,69.45
2016-06-29T06:08:21.063Z,69.64
2016-06-29T06:09:21.099Z,69.45
2016-06-29T06:10:21.069Z,68.87
2016-06-29T06:11:21.063Z,69.35
2016-06-29T06:12:21.278Z,69.26
2016-06-29T06:13:21.073Z,69.35
2016-06-29T06:14:21.349Z,69.26
2016-06-29T06:15:21.072Z,69.35
2016-06-29T06:16:21.076Z,69.07
2016-06-29T06:17:21.087Z,69.35
2016-06-29T06:18:21.075Z,68.87
2016-06-29T06:19:21.071Z,68.77
2016-06-29T06:20:21.079Z,68.97
2016-06-29T06:21:21.074Z,68.68
2016-06-29T06:22:21.080Z,68.87
2016-06-29T06:23:21.070Z,68.68
2016-06-29T06:24:21.081Z,68.77
2016-06-29T06:25:21.087Z,68.87
2016-06-29T06:26:21.071Z,68.59
2016-06-29T06:27:21.072Z,68.77
2016-06-29T06:28:21.073Z,68.26
2016-06-29T06:29:21.071Z,68.1
2016-06-29T06:30:21.066Z,67.97
2016-06-29T06:31:21.083Z,68.49
2016-06-29T06:32:21.094Z,68.26
2016-06-29T06:33:21.077Z,67.68
2016-06-29T06:34:21.075Z,67.97
2016-06-29T06:35:21.071Z,67.78
2016-06-29T06:36:21.073Z,67.58
2016-06-29T06:37:21.064Z,67.68
2016-06-29T06:38:21.070Z,67.1
2016-06-29T06:39:21.068Z,67.2
2016-06-29T06:40:21.073Z,67
2016-06-29T06:41:21.068Z,67.2
2016-06-29T06:42:21.081Z,67.2
2016-06-29T06:43:21.074Z,67.4
2016-06-29T06:44:21.081Z,67.1
2016-06-29T06:45:21.072Z,67.4
2016-06-29T06:46:21.070Z,67.1
2016-06-29T06:47:21.068Z,67.4
2016-06-29T06:48:21.062Z,66.82
2016-06-29T06:49:21.080Z,66.91
2016-06-29T06:50:21.072Z,67.2
2016-06-29T06:51:21.072Z,66.91
2016-06-29T06:52:21.076Z,66.82
2016-06-29T06:53:21.071Z,66.82
2016-06-29T06:54:21.074Z,66.33
2016-06-29T06:55:21.078Z,67.1
2016-06-29T06:56:21.065Z,67.1
2016-06-29T06:57:21.070Z,66.72
2016-06-29T06:58:21.078Z,66.82
2016-06-29T06:59:21.067Z,66.52
2016-06-29T07:00:21.069Z,66.62
2016-06-29T07:01:21.271Z,66.33
2016-06-29T07:02:21.077Z,66.43
2016-06-29T07:03:21.070Z,66.43
2016-06-29T07:04:21.078Z,67
2016-06-29T07:05:21.115Z,66.62
2016-06-29T07:06:21.076Z,66.62
2016-06-29T07:07:21.084Z,66.04
2016-06-29T07:08:21.078Z,66.04
2016-06-29T07:09:21.077Z,66.52
2016-06-29T07:10:21.071Z,66.43
2016-06-29T07:11:21.072Z,66.52
2016-06-29T07:12:21.102Z,66.62
2016-06-29T07:13:21.271Z,66.04
2016-06-29T07:14:21.070Z,66.04
2016-06-29T07:15:21.071Z,66.33
2016-06-29T07:16:21.086Z,66.33
2016-06-29T07:17:21.066Z,66.04
2016-06-29T07:18:21.074Z,66.24
2016-06-29T07:19:21.065Z,66.04
2016-06-29T07:20:21.062Z,66.14
2016-06-29T07:21:21.066Z,66.33
2016-06-29T07:22:21.079Z,66.33
2016-06-29T07:23:21.073Z,66.33
2016-06-29T07:24:21.071Z,66.43
2016-06-29T07:25:21.082Z,66.52
2016-06-29T07:26:21.076Z,66.52
2016-06-29T07:27:21.069Z,66.33
2016-06-29T07:28:21.067Z,66.33
2016-06-29T07:29:21.062Z,66.14
2016-06-29T07:30:21.071Z,66.24
2016-06-29T07:31:21.110Z,66.33
2016-06-29T07:32:21.071Z,66.24
2016-06-29T07:33:21.066Z,66.43
2016-06-29T07:34:21.072Z,66.24
2016-06-29T07:35:21.071Z,66.33
2016-06-29T07:36:21.084Z,66.52
2016-06-29T07:37:21.074Z,66.33
2016-06-29T07:38:21.070Z,66.43
2016-06-29T07:39:21.072Z,66.33
2016-06-29T07:40:21.074Z,66.14
2016-06-29T07:41:21.071Z,66.43
2016-06-29T07:42:21.057Z,66.43
2016-06-29T07:43:21.071Z,66.14
2016-06-29T07:44:21.071Z,66.14
2016-06-29T07:45:21.273Z,66.33
2016-06-29T07:46:21.081Z,66.14
2016-06-29T07:47:21.067Z,66.33
2016-06-29T07:48:21.483Z,66.33
2016-06-29T07:49:21.065Z,66.33
2016-06-29T07:50:21.061Z,66.33
2016-06-29T07:51:21.068Z,66.33
2016-06-29T07:52:21.070Z,66.14
2016-06-29T07:53:21.266Z,66.04
2016-06-29T07:54:21.060Z,66.04
2016-06-29T07:55:21.064Z,66.33
2016-06-29T07:56:21.068Z,66.43
2016-06-29T07:57:21.099Z,66.33
2016-06-29T07:58:21.078Z,66.14
2016-06-29T07:59:21.057Z,66.33
2016-06-29T08:00:21.073Z,66.43
2016-06-29T08:01:21.059Z,66.14
2016-06-29T08:02:21.062Z,66.43
2016-06-29T08:03:21.062Z,66.33
2016-06-29T08:04:21.066Z,66.14
2016-06-29T08:05:21.262Z,66.33
2016-06-29T08:06:21.082Z,66.33
2016-06-29T08:07:21.062Z,66.43
2016-06-29T08:08:21.068Z,66.43
2016-06-29T08:09:21.058Z,66.33
2016-06-29T08:10:21.062Z,66.14
2016-06-29T08:11:21.068Z,66.33
2016-06-29T08:12:21.059Z,66.33
2016-06-29T08:13:21.058Z,66.33
2016-06-29T08:14:21.094Z,66.14
2016-06-29T08:15:21.064Z,66.33
2016-06-29T08:16:21.058Z,66.33
2016-06-29T08:17:21.064Z,66.52
2016-06-29T08:18:21.062Z,66.43
2016-06-29T08:19:21.058Z,66.04
2016-06-29T08:20:21.056Z,66.43
2016-06-29T08:21:21.054Z,66.33
2016-06-29T08:22:21.050Z,66.52
2016-06-29T08:23:21.056Z,66.04
2016-06-29T08:24:21.056Z,66.33
2016-06-29T08:25:21.063Z,66.33
2016-06-29T08:26:21.081Z,66.43
2016-06-29T08:27:21.062Z,66.33
2016-06-29T08:28:21.268Z,66.43
2016-06-29T08:29:21.080Z,66.43
2016-06-29T08:30:21.064Z,66.43
2016-06-29T08:31:21.058Z,66.43
2016-06-29T08:32:21.049Z,66.43
2016-06-29T08:33:21.057Z,66.43
2016-06-29T08:34:21.052Z,66.52
2016-06-29T08:35:21.061Z,66.33
2016-06-29T08:36:21.257Z,66.52
2016-06-29T08:37:21.057Z,66.11
2016-06-29T08:38:21.060Z,66.33
2016-06-29T08:39:21.057Z,66.11
2016-06-29T08:40:21.049Z,66.3
2016-06-29T08:41:21.059Z,66.11
2016-06-29T08:42:21.258Z,66.11
2016-06-29T08:43:21.060Z,66.3
2016-06-29T08:44:21.040Z,66.33
2016-06-29T08:45:21.052Z,66.2
2016-06-29T08:46:21.062Z,66.2
2016-06-29T08:47:21.076Z,66.43
2016-06-29T08:48:21.050Z,66.2
2016-06-29T08:49:21.244Z,66.01
2016-06-29T08:50:21.050Z,66.01
2016-06-29T08:51:21.052Z,66.78
2016-06-29T08:52:21.050Z,66.78
2016-06-29T08:53:21.053Z,66.39
2016-06-29T08:54:21.056Z,66.78
2016-06-29T08:55:21.250Z,66.52
2016-06-29T08:56:21.042Z,66.62
2016-06-29T08:57:21.041Z,66.59
2016-06-29T08:58:21.054Z,66.69
2016-06-29T08:59:21.051Z,66.59
2016-06-29T09:00:21.053Z,66.59
2016-06-29T09:01:21.267Z,66.62
2016-06-29T09:02:21.057Z,66.39
2016-06-29T09:03:21.040Z,66.39
2016-06-29T09:04:21.068Z,66.2
2016-06-29T09:05:21.250Z,66.3
2016-06-29T09:06:21.042Z,66.39
2016-06-29T09:07:21.047Z,66.59
2016-06-29T09:08:21.257Z,66.59
2016-06-29T09:09:21.048Z,66.59
2016-06-29T09:10:21.047Z,66.78
2016-06-29T09:11:21.038Z,66.69
2016-06-29T09:12:21.057Z,66.69
2016-06-29T09:13:21.037Z,66.39
2016-06-29T09:14:21.033Z,67.16
2016-06-29T09:15:21.045Z,66.69
2016-06-29T09:16:21.038Z,67.07
2016-06-29T09:17:21.042Z,66.78
2016-06-29T09:18:21.037Z,66.78
2016-06-29T09:19:21.041Z,66.97
2016-06-29T09:20:21.032Z,66.88
2016-06-29T09:21:21.042Z,66.78
2016-06-29T09:22:21.043Z,66.59
2016-06-29T09:23:21.058Z,66.78
2016-06-29T09:24:21.031Z,66.88
2016-06-29T09:25:21.036Z,66.69
2016-06-29T09:26:21.239Z,66.69
2016-06-29T09:27:21.042Z,66.78
2016-06-29T09:28:21.064Z,66.88
2016-06-29T09:29:21.029Z,66.88
2016-06-29T09:30:21.032Z,66.88
2016-06-29T09:31:21.027Z,66.78
2016-06-29T09:32:21.045Z,66.69
2016-06-29T09:33:21.028Z,66.59
2016-06-29T09:34:21.241Z,66.97
2016-06-29T09:35:21.230Z,66.88
2016-06-29T09:36:21.030Z,66.88
2016-06-29T09:37:21.034Z,66.59
2016-06-29T09:38:21.249Z,66.69
2016-06-29T09:39:21.066Z,66.88
2016-06-29T09:40:21.030Z,66.78
2016-06-29T09:41:21.026Z,66.78
2016-06-29T09:42:21.043Z,66.78
2016-06-29T09:43:21.037Z,66.88
2016-06-29T09:44:21.020Z,66.97
2016-06-29T09:45:21.229Z,66.78
2016-06-29T09:46:21.032Z,66.78
2016-06-29T09:47:21.035Z,66.59
2016-06-29T09:48:21.067Z,66.49
2016-06-29T09:49:21.032Z,67.07
2016-06-29T09:50:21.038Z,66.69
2016-06-29T09:51:21.057Z,66.69
2016-06-29T09:52:21.021Z,66.59
2016-06-29T09:53:21.011Z,66.49
2016-06-29T09:54:21.031Z,66.49
2016-06-29T09:55:21.008Z,66.59
2016-06-29T09:56:21.019Z,66.59
2016-06-29T09:57:21.017Z,66.59
2016-06-29T09:58:21.013Z,66.59
2016-06-29T09:59:21.011Z,66.3
2016-06-29T10:00:21.045Z,66.88
2016-06-29T10:01:21.035Z,66.39
2016-06-29T10:02:21.225Z,66.39
2016-06-29T10:03:21.054Z,66.49
2016-06-29T10:04:21.022Z,66.59
2016-06-29T10:05:21.238Z,66.59
2016-06-29T10:06:21.014Z,66.39
2016-06-29T10:07:21.021Z,66.3
2016-06-29T10:08:21.026Z,66.69
2016-06-29T10:09:21.009Z,66.69
2016-06-29T10:10:21.014Z,66.69
2016-06-29T10:11:21.006Z,66.69
2016-06-29T10:12:21.050Z,66.78
2016-06-29T10:13:21.213Z,66.39
2016-06-29T10:14:21.006Z,66.59
2016-06-29T10:15:21.011Z,66.97
2016-06-29T10:16:21.003Z,66.69
2016-06-29T10:17:21.212Z,66.69
2016-06-29T10:18:21.006Z,66.97
2016-06-29T10:19:21.002Z,66.78
2016-06-29T10:20:21.207Z,66.78
2016-06-29T10:21:21.004Z,66.88
2016-06-29T10:22:20.998Z,66.88
2016-06-29T10:23:20.996Z,67.07
2016-06-29T10:24:21.246Z,66.88
2016-06-29T10:25:21.011Z,67.16
2016-06-29T10:26:21.009Z,67.36
2016-06-29T10:27:21.006Z,67.46
2016-06-29T10:28:20.992Z,67.26
2016-06-29T10:29:20.995Z,67.16
2016-06-29T10:30:21.191Z,67.16
2016-06-29T10:31:20.994Z,67.26
2016-06-29T10:32:20.995Z,67.16
2016-06-29T10:33:20.994Z,67.46
2016-06-29T10:34:20.997Z,66.97
2016-06-29T10:35:20.994Z,67.26
2016-06-29T10:36:21.014Z,66.97
2016-06-29T10:37:21.007Z,66.88
2016-06-29T10:38:20.990Z,66.78
2016-06-29T10:39:21.001Z,66.69
2016-06-29T10:40:20.998Z,66.69
2016-06-29T10:41:20.994Z,66.78
2016-06-29T10:42:21.008Z,66.97
2016-06-29T10:43:20.992Z,66.78
2016-06-29T10:44:20.987Z,66.88
2016-06-29T10:45:20.995Z,66.88
2016-06-29T10:46:20.984Z,66.88
2016-06-29T10:47:20.977Z,67.07
2016-06-29T10:48:20.992Z,66.88
2016-06-29T10:49:20.983Z,66.72
2016-06-29T10:50:20.986Z,66.69
2016-06-29T10:51:20.983Z,66.78
2016-06-29T10:52:20.983Z,66.97
2016-06-29T10:53:20.979Z,66.78
2016-06-29T10:54:20.971Z,66.91
2016-06-29T10:55:20.978Z,67.26
2016-06-29T10:56:21.171Z,66.78
2016-06-29T10:57:20.988Z,67.1
2016-06-29T10:58:21.182Z,66.78
2016-06-29T10:59:21.000Z,66.82
2016-06-29T11:00:21.182Z,66.59
2016-06-29T11:01:20.978Z,66.78
2016-06-29T11:02:20.979Z,67
2016-06-29T11:03:20.989Z,66.78
2016-06-29T11:04:20.995Z,67.1
2016-06-29T11:05:20.970Z,67.1
2016-06-29T11:06:20.976Z,66.82
2016-06-29T11:07:20.980Z,66.72
2016-06-29T11:08:20.978Z,66.97
2016-06-29T11:09:20.975Z,67.3
2016-06-29T11:10:20.983Z,66.97
2016-06-29T11:11:20.993Z,66.88
2016-06-29T11:12:20.980Z,66.69
2016-06-29T11:13:20.975Z,66.88
2016-06-29T11:14:20.996Z,66.78
2016-06-29T11:15:20.987Z,66.69
2016-06-29T11:16:20.974Z,66.78
2016-06-29T11:17:20.984Z,66.82
2016-06-29T11:18:20.978Z,66.69
2016-06-29T11:19:21.174Z,66.78
2016-06-29T11:20:20.974Z,66.88
2016-06-29T11:21:20.997Z,66.91
2016-06-29T11:22:20.979Z,66.82
2016-06-29T11:23:20.987Z,66.52
2016-06-29T11:24:20.982Z,66.78
2016-06-29T11:25:20.965Z,66.62
2016-06-29T11:26:20.980Z,66.62
2016-06-29T11:27:21.166Z,66.59
2016-06-29T11:28:20.968Z,66.69
2016-06-29T11:29:20.969Z,66.72
2016-06-29T11:30:21.023Z,66.69
2016-06-29T11:31:20.977Z,66.39
2016-06-29T11:32:20.971Z,66.33
2016-06-29T11:33:20.983Z,66.33
2016-06-29T11:34:20.970Z,66.11
2016-06-29T11:35:21.177Z,66.39
2016-06-29T11:36:20.987Z,66.52
2016-06-29T11:37:20.970Z,66.39
2016-06-29T11:38:20.986Z,66.33
2016-06-29T11:39:20.979Z,66.69
2016-06-29T11:40:20.968Z,66.72
2016-06-29T11:41:20.957Z,66.62
2016-06-29T11:42:20.971Z,66.62
2016-06-29T11:43:21.179Z,66.43
2016-06-29T11:44:20.961Z,66.39
2016-06-29T11:45:20.967Z,66.52
2016-06-29T11:46:20.976Z,66.52
2016-06-29T11:47:20.973Z,66.04
2016-06-29T11:48:20.965Z,66.33
2016-06-29T11:49:20.974Z,66.14
2016-06-29T11:50:20.987Z,66.52
2016-06-29T11:51:20.975Z,66.43
2016-06-29T11:52:20.951Z,66.04
2016-06-29T11:53:20.968Z,65.95
2016-06-29T11:54:20.974Z,66.01
2016-06-29T11:55:21.166Z,66.24
2016-06-29T11:56:20.973Z,66.14
2016-06-29T11:57:20.963Z,66.43
2016-06-29T11:58:20.978Z,66.33
2016-06-29T11:59:20.963Z,66.04
2016-06-29T12:00:20.961Z,66.14
2016-06-29T12:01:21.398Z,66.24
2016-06-29T12:02:20.995Z,66.43
2016-06-29T12:03:21.182Z,66.43
2016-06-29T12:04:20.957Z,66.24
2016-06-29T12:05:21.168Z,66.33
2016-06-29T12:06:21.148Z,66.43
2016-06-29T12:07:20.971Z,66.72
2016-06-29T12:08:20.963Z,66.52
2016-06-29T12:09:20.960Z,66.43
2016-06-29T12:10:20.947Z,66.04
2016-06-29T12:11:20.988Z,66.43
2016-06-29T12:12:21.159Z,66.14
2016-06-29T12:13:20.954Z,66.43
2016-06-29T12:14:21.155Z,66.33
2016-06-29T12:15:20.942Z,66.33
2016-06-29T12:16:20.945Z,66.52
2016-06-29T12:17:20.973Z,66.62
2016-06-29T12:18:20.952Z,66.62
2016-06-29T12:19:20.950Z,66.52
2016-06-29T12:20:21.148Z,66.43
2016-06-29T12:21:20.943Z,66.33
2016-06-29T12:22:21.149Z,66.04
2016-06-29T12:23:20.950Z,66.43
2016-06-29T12:24:20.949Z,65.95
2016-06-29T12:25:20.954Z,65.75
2016-06-29T12:26:20.957Z,65.75
2016-06-29T12:27:20.947Z,65.85
2016-06-29T12:28:20.953Z,65.95
2016-06-29T12:29:20.949Z,65.56
2016-06-29T12:30:20.947Z,65.85
2016-06-29T12:31:20.960Z,65.85
2016-06-29T12:32:20.946Z,65.85
2016-06-29T12:33:20.937Z,65.56
2016-06-29T12:34:20.953Z,65.85
2016-06-29T12:35:20.966Z,65.75
2016-06-29T12:36:20.950Z,65.95
2016-06-29T12:37:20.939Z,65.85
2016-06-29T12:38:20.946Z,65.75
2016-06-29T12:39:20.927Z,65.85
2016-06-29T12:40:20.958Z,65.85
2016-06-29T12:41:20.945Z,65.66
2016-06-29T12:42:21.174Z,65.75
2016-06-29T12:43:21.148Z,66.14
2016-06-29T12:44:20.947Z,66.04
2016-06-29T12:45:21.145Z,66.33
2016-06-29T12:46:20.940Z,66.14
2016-06-29T12:47:20.939Z,66.33
2016-06-29T12:48:20.949Z,65.95
2016-06-29T12:49:20.932Z,66.33
2016-06-29T12:50:20.937Z,65.85
2016-06-29T12:51:20.957Z,65.95
2016-06-29T12:52:20.951Z,66.24
2016-06-29T12:53:20.957Z,65.85
2016-06-29T12:54:20.937Z,65.85
2016-06-29T12:55:20.954Z,65.85